createdAt,value
2019-02-18T00:01:33.142Z,101193.91
2019-02-18T00:04:20.142Z,101200.53
2019-02-18T00:07:15.010Z,101201.59
2019-02-18T00:10:01.847Z,101198.25
2019-02-18T00:12:49.176Z,101191.38
2019-02-18T00:15:36.395Z,101196.35
2019-02-18T00:18:38.136Z,101195.22
2019-02-18T00:21:24.945Z,101179.34
2019-02-18T00:24:12.476Z,101184.04
2019-02-18T00:26:59.999Z,101182.86
2019-02-18T00:29:49.875Z,101180.78
2019-02-18T00:32:36.900Z,101177.84
2019-02-18T00:35:23.702Z,101173.57
2019-02-18T00:38:11.842Z,101168.86
2019-02-18T00:40:58.764Z,101171.14
2019-02-18T00:43:45.964Z,101172.03
2019-02-18T00:46:33.494Z,101172.00
2019-02-18T00:49:20.928Z,101173.30
2019-02-18T00:52:08.352Z,101174.12
2019-02-18T00:54:55.572Z,101172.34
2019-02-18T00:57:43.781Z,101175.84
2019-02-18T01:00:32.359Z,101175.84
2019-02-18T01:03:26.952Z,101173.63
2019-02-18T01:06:13.671Z,101170.98
2019-02-18T01:09:00.784Z,101170.98
2019-02-18T01:11:50.373Z,101168.77
2019-02-18T01:17:51.810Z,101160.88
2019-02-18T01:20:39.040Z,101161.80
2019-02-18T01:23:33.734Z,101152.25
2019-02-18T01:26:20.956Z,101156.63
2019-02-18T01:29:10.514Z,101160.53
2019-02-18T01:38:10.137Z,101149.52
2019-02-18T01:44:09.340Z,101150.84
2019-02-18T01:46:56.872Z,101147.56
2019-02-18T01:49:43.892Z,101136.62
2019-02-18T01:52:30.990Z,101132.91
2019-02-18T01:55:18.328Z,101138.27
2019-02-18T01:58:05.653Z,101131.50
2019-02-18T02:00:52.968Z,101128.96
2019-02-18T02:03:40.269Z,101123.12
2019-02-18T02:06:27.305Z,101122.45
2019-02-18T02:09:14.979Z,101120.20
2019-02-18T02:12:02.250Z,101114.43
2019-02-18T02:14:57.178Z,101123.81
2019-02-18T02:17:44.057Z,101120.03
2019-02-18T02:20:31.592Z,101111.82
2019-02-18T02:23:18.903Z,101114.94
2019-02-18T02:26:06.250Z,101120.20
2019-02-18T02:28:53.238Z,101113.70
2019-02-18T02:31:47.755Z,101111.59
2019-02-18T02:34:34.924Z,101106.43
2019-02-18T02:37:22.345Z,101111.30
2019-02-18T02:40:09.984Z,101103.95
2019-02-18T02:42:57.040Z,101102.70
2019-02-18T02:45:45.049Z,101096.95
2019-02-18T02:48:34.142Z,101097.84
2019-02-18T02:51:21.615Z,101103.62
2019-02-18T02:54:08.779Z,101112.56
2019-02-18T02:56:57.306Z,101105.87
2019-02-18T02:59:44.748Z,101115.92
2019-02-18T03:02:32.335Z,101112.67
2019-02-18T03:05:19.504Z,101104.54
2019-02-18T03:08:06.792Z,101108.19
2019-02-18T03:10:54.102Z,101107.88
2019-02-18T03:13:43.893Z,101104.46
2019-02-18T03:16:28.812Z,101102.83
2019-02-18T03:19:16.161Z,101108.15
2019-02-18T03:22:18.271Z,101107.41
2019-02-18T03:25:17.363Z,101110.08
2019-02-18T03:28:24.126Z,101104.89
2019-02-18T03:34:21.186Z,101110.27
2019-02-18T03:37:08.371Z,101118.58
2019-02-18T03:40:03.199Z,101113.84
2019-02-18T03:42:50.583Z,101111.73
2019-02-18T03:45:37.628Z,101115.69
2019-02-18T03:48:24.950Z,101112.23
2019-02-18T03:51:12.038Z,101113.16
2019-02-18T03:53:59.753Z,101108.89
2019-02-18T03:56:46.995Z,101111.97
2019-02-18T03:59:42.191Z,101112.42
2019-02-18T04:02:29.491Z,101115.02
2019-02-18T04:05:16.831Z,101114.59
2019-02-18T04:08:04.131Z,101118.08
2019-02-18T04:10:51.427Z,101118.97
2019-02-18T04:13:38.594Z,101112.89
2019-02-18T04:16:26.225Z,101116.39
2019-02-18T04:19:13.536Z,101120.76
2019-02-18T04:22:00.818Z,101116.41
2019-02-18T04:24:48.178Z,101115.99
2019-02-18T04:27:35.599Z,101107.80
2019-02-18T04:33:37.255Z,101108.31
2019-02-18T04:36:24.480Z,101110.50
2019-02-18T04:42:18.365Z,101104.50
2019-02-18T04:45:06.536Z,101100.59
2019-02-18T04:47:55.005Z,101109.78
2019-02-18T04:50:43.401Z,101105.47
2019-02-18T04:53:30.738Z,101103.30
2019-02-18T05:02:30.522Z,101100.80
2019-02-18T05:05:21.752Z,101097.16
2019-02-18T05:08:09.405Z,101093.28
2019-02-18T05:14:03.210Z,101092.34
2019-02-18T05:16:53.640Z,101097.64
2019-02-18T05:19:40.264Z,101103.44
2019-02-18T05:22:41.711Z,101104.80
2019-02-18T05:31:41.142Z,101104.48
2019-02-18T05:40:41.752Z,101101.02
2019-02-18T05:43:29.195Z,101100.16
2019-02-18T05:46:18.479Z,101100.15
2019-02-18T05:49:06.290Z,101099.24
2019-02-18T05:51:53.306Z,101103.56
2019-02-18T05:54:40.691Z,101098.78
2019-02-18T05:57:28.348Z,101100.94
2019-02-18T06:00:15.684Z,101105.75
2019-02-18T06:03:02.781Z,101101.02
2019-02-18T06:05:49.721Z,101105.81
2019-02-18T06:08:36.937Z,101104.06
2019-02-18T06:11:24.148Z,101109.73
2019-02-18T06:14:11.363Z,101103.66
2019-02-18T06:16:58.576Z,101111.48
2019-02-18T06:19:46.214Z,101112.80
2019-02-18T06:22:33.943Z,101110.63
2019-02-18T06:25:20.899Z,101118.41
2019-02-18T06:31:14.326Z,101124.91
2019-02-18T06:34:01.669Z,101123.61
2019-02-18T06:36:48.957Z,101125.64
2019-02-18T06:39:41.464Z,101123.84
2019-02-18T06:42:23.816Z,101124.31
2019-02-18T06:45:11.975Z,101123.02
2019-02-18T06:51:04.426Z,101130.33
2019-02-18T06:53:51.729Z,101132.00
2019-02-18T06:56:48.810Z,101135.41
2019-02-18T07:02:45.347Z,101139.24
2019-02-18T07:05:48.090Z,101140.50
2019-02-18T07:08:35.349Z,101140.00
2019-02-18T07:11:28.958Z,101138.16
2019-02-18T07:14:16.490Z,101141.94
2019-02-18T07:17:04.114Z,101141.34
2019-02-18T07:20:06.117Z,101139.47
2019-02-18T07:25:59.648Z,101135.20
2019-02-18T07:28:47.293Z,101141.56
2019-02-18T07:31:48.723Z,101145.24
2019-02-18T07:34:36.042Z,101142.42
2019-02-18T07:37:23.156Z,101141.33
2019-02-18T07:40:10.555Z,101146.72
2019-02-18T07:46:05.300Z,101136.44
2019-02-18T07:48:52.624Z,101135.37
2019-02-18T07:51:39.921Z,101134.28
2019-02-18T07:54:27.286Z,101131.80
2019-02-18T07:57:14.383Z,101129.30
2019-02-18T08:00:01.806Z,101136.17
2019-02-18T08:02:49.223Z,101142.09
2019-02-18T08:08:43.419Z,101142.85
2019-02-18T08:11:47.216Z,101134.27
2019-02-18T08:14:34.533Z,101130.85
2019-02-18T08:17:21.751Z,101127.08
2019-02-18T08:20:08.875Z,101131.16
2019-02-18T08:22:55.984Z,101126.86
2019-02-18T08:26:01.315Z,101126.13
2019-02-18T08:28:48.637Z,101124.41
2019-02-18T08:31:35.652Z,101125.77
2019-02-18T08:34:22.951Z,101118.41
2019-02-18T08:37:12.907Z,101116.32
2019-02-18T08:40:00.324Z,101115.94
2019-02-18T08:42:54.857Z,101114.77
2019-02-18T08:45:42.277Z,101116.13
2019-02-18T08:48:30.025Z,101110.90
2019-02-18T08:51:17.599Z,101114.38
2019-02-18T08:54:19.740Z,101116.61
2019-02-18T08:57:07.214Z,101121.89
2019-02-18T09:00:11.800Z,101115.76
2019-02-18T09:09:12.066Z,101108.67
2019-02-18T09:11:59.406Z,101100.16
2019-02-18T09:17:53.105Z,101102.39
2019-02-18T09:20:41.343Z,101102.38
2019-02-18T09:23:28.649Z,101095.20
2019-02-18T09:26:16.564Z,101104.41
2019-02-18T09:29:03.843Z,101100.39
2019-02-18T09:31:51.125Z,101097.56
2019-02-18T09:34:53.308Z,101101.20
2019-02-18T09:37:40.325Z,101100.53
2019-02-18T09:40:27.630Z,101098.66
2019-02-18T09:43:31.412Z,101097.55
2019-02-18T09:46:18.942Z,101094.81
2019-02-18T09:49:06.275Z,101095.34
2019-02-18T09:52:08.218Z,101094.70
2019-02-18T09:54:55.870Z,101092.41
2019-02-18T09:57:44.019Z,101085.86
2019-02-18T10:00:31.511Z,101089.05
2019-02-18T10:03:18.837Z,101085.11
2019-02-18T10:06:06.256Z,101087.80
2019-02-18T10:08:54.501Z,101084.23
2019-02-18T10:11:42.145Z,101080.27
2019-02-18T10:14:43.874Z,101084.80
2019-02-18T10:17:38.443Z,101087.77
2019-02-18T10:26:37.477Z,101079.55
2019-02-18T10:29:24.883Z,101074.14
2019-02-18T10:38:25.340Z,101070.70
2019-02-18T10:41:12.362Z,101070.09
2019-02-18T10:44:00.301Z,101071.09
2019-02-18T10:59:13.462Z,101045.27
2019-02-18T11:02:01.793Z,101043.71
2019-02-18T11:07:59.562Z,101039.17
2019-02-18T11:10:46.716Z,101034.94
2019-02-18T11:13:48.614Z,101028.08
2019-02-18T11:16:50.627Z,101022.25
2019-02-18T11:19:38.232Z,101018.45
2019-02-18T11:25:31.804Z,101019.20
2019-02-18T11:34:32.327Z,101009.69
2019-02-18T11:37:19.669Z,101003.13
2019-02-18T11:40:17.656Z,101004.75
2019-02-18T11:43:04.802Z,101001.04
2019-02-18T11:48:58.220Z,100994.20
2019-02-18T11:52:03.987Z,100986.63
2019-02-18T12:01:05.199Z,100978.66
2019-02-18T12:03:53.750Z,100972.13
2019-02-18T12:06:41.148Z,100975.70
2019-02-18T12:09:29.310Z,100959.36
2019-02-18T12:12:16.348Z,100962.57
2019-02-18T12:15:03.669Z,100957.11
2019-02-18T12:17:51.192Z,100952.45
2019-02-18T12:20:39.520Z,100950.20
2019-02-18T12:23:27.169Z,100950.09
2019-02-18T12:26:15.610Z,100947.50
2019-02-18T12:29:04.098Z,100935.42
2019-02-18T12:34:57.336Z,100927.66
2019-02-18T12:37:54.677Z,100920.75
2019-02-18T12:40:32.276Z,100916.80
2019-02-18T12:43:19.529Z,100913.80
2019-02-18T12:46:15.502Z,100902.54
2019-02-18T12:48:54.648Z,100897.34
2019-02-18T12:51:42.080Z,100893.20
2019-02-18T12:54:29.087Z,100885.95
2019-02-18T12:57:16.408Z,100885.21
2019-02-18T13:00:04.813Z,100883.22
2019-02-18T13:02:53.433Z,100873.74
2019-02-18T13:05:41.651Z,100871.00
2019-02-18T13:08:29.992Z,100865.46
2019-02-18T13:11:31.734Z,100864.36
2019-02-18T13:14:21.939Z,100851.95
2019-02-18T13:17:16.632Z,100853.06
2019-02-18T13:23:10.488Z,100839.79
2019-02-18T13:25:57.621Z,100839.92
2019-02-18T13:28:45.050Z,100834.59
2019-02-18T13:31:32.377Z,100836.36
2019-02-18T13:37:34.032Z,100831.31
2019-02-18T13:40:21.646Z,100833.53
2019-02-18T13:43:08.776Z,100830.90
2019-02-18T13:45:56.920Z,100831.89
2019-02-18T13:48:44.362Z,100837.64
2019-02-18T13:51:45.902Z,100832.73
2019-02-18T13:54:32.904Z,100833.42
2019-02-18T13:57:22.586Z,100823.51
2019-02-18T14:00:09.804Z,100818.40
2019-02-18T14:02:58.246Z,100809.64
2019-02-18T14:06:00.094Z,100813.64
2019-02-18T14:08:47.425Z,100810.16
2019-02-18T14:11:34.842Z,100803.18
2019-02-18T14:14:21.958Z,100808.59
2019-02-18T14:17:10.201Z,100804.72
2019-02-18T14:19:57.425Z,100796.28
2019-02-18T14:22:44.845Z,100792.91
2019-02-18T14:25:31.756Z,100797.25
2019-02-18T14:28:18.975Z,100792.37
2019-02-18T14:31:06.203Z,100794.98
2019-02-18T14:37:02.949Z,100795.19
2019-02-18T14:39:50.381Z,100793.98
2019-02-18T14:42:39.230Z,100786.16
2019-02-18T14:45:26.551Z,100785.92
2019-02-18T14:48:21.350Z,100782.42
2019-02-18T14:51:08.669Z,100776.56
2019-02-18T14:53:55.774Z,100778.25
2019-02-18T14:56:43.921Z,100781.77
2019-02-18T14:59:31.261Z,100780.41
2019-02-18T15:02:18.669Z,100780.50
2019-02-18T15:05:06.097Z,100772.05
2019-02-18T15:07:53.106Z,100766.61
2019-02-18T15:10:40.432Z,100769.16
2019-02-18T15:13:27.752Z,100769.23
2019-02-18T15:16:15.078Z,100758.98
2019-02-18T15:19:02.367Z,100762.30
2019-02-18T15:21:50.097Z,100761.63
2019-02-18T15:24:37.339Z,100751.22
2019-02-18T15:27:24.771Z,100751.39
2019-02-18T15:30:14.961Z,100749.45
2019-02-18T15:33:04.630Z,100736.45
2019-02-18T15:35:52.231Z,100735.29
2019-02-18T15:38:39.437Z,100733.65
2019-02-18T15:41:26.895Z,100732.86
2019-02-18T15:44:15.100Z,100730.66
2019-02-18T15:59:28.688Z,100729.14
2019-02-18T16:02:30.541Z,100726.43
2019-02-18T16:05:18.682Z,100729.13
2019-02-18T16:08:06.106Z,100728.67
2019-02-18T16:10:54.038Z,100727.67
2019-02-18T16:16:47.468Z,100725.40
2019-02-18T16:19:49.185Z,100728.66
2019-02-18T16:22:37.408Z,100714.94
2019-02-18T16:25:25.652Z,100717.33
2019-02-18T16:28:12.669Z,100723.72
2019-02-18T16:34:06.448Z,100723.88
2019-02-18T16:36:53.555Z,100725.81
2019-02-18T16:39:43.077Z,100724.23
2019-02-18T16:45:34.585Z,100721.45
2019-02-18T16:48:21.656Z,100717.86
2019-02-18T16:51:09.020Z,100719.23
2019-02-18T16:54:10.769Z,100722.04
2019-02-18T17:00:06.284Z,100720.47
2019-02-18T17:02:53.913Z,100718.98
2019-02-18T17:08:49.948Z,100727.88
2019-02-18T17:11:37.091Z,100727.44
2019-02-18T17:14:25.291Z,100726.67
2019-02-18T17:20:18.464Z,100730.01
2019-02-18T17:23:05.683Z,100727.48
2019-02-18T17:25:53.199Z,100722.39
2019-02-18T17:28:41.332Z,100714.62
2019-02-18T17:31:35.716Z,100712.48
2019-02-18T17:34:22.627Z,100713.09
2019-02-18T17:37:10.183Z,100712.73
2019-02-18T17:39:58.392Z,100707.13
2019-02-18T17:42:46.739Z,100703.45
2019-02-18T17:48:41.132Z,100710.30
2019-02-18T17:51:35.413Z,100703.45
2019-02-18T17:54:25.413Z,100705.14
2019-02-18T17:57:10.481Z,100708.80
2019-02-18T17:59:57.907Z,100692.06
2019-02-18T18:02:45.327Z,100697.49
2019-02-18T18:05:32.547Z,100697.40
2019-02-18T18:08:20.084Z,100695.16
2019-02-18T18:11:11.993Z,100697.05
2019-02-18T18:13:59.628Z,100692.26
2019-02-18T18:16:48.873Z,100696.35
2019-02-18T18:19:36.403Z,100691.16
2019-02-18T18:22:37.557Z,100685.84
2019-02-18T18:25:24.935Z,100679.99
2019-02-18T18:28:19.891Z,100671.85
2019-02-18T18:31:21.379Z,100673.22
2019-02-18T18:34:08.527Z,100673.44
2019-02-18T18:43:22.878Z,100665.40
2019-02-18T18:46:25.087Z,100666.12
2019-02-18T18:49:12.573Z,100666.39
2019-02-18T18:52:00.515Z,100662.06
2019-02-18T18:54:47.446Z,100665.58
2019-02-18T18:57:34.435Z,100668.20
2019-02-18T19:00:21.768Z,100665.41
2019-02-18T19:03:09.254Z,100667.16
2019-02-18T19:05:56.918Z,100657.44
2019-02-18T19:08:44.156Z,100654.12
2019-02-18T19:11:32.549Z,100653.81
2019-02-18T19:14:19.726Z,100657.97
2019-02-18T19:20:14.099Z,100651.97
2019-02-18T19:26:08.964Z,100648.20
2019-02-18T19:35:09.015Z,100660.26
2019-02-18T19:37:57.280Z,100655.13
2019-02-18T19:40:44.579Z,100661.05
2019-02-18T19:43:31.939Z,100660.02
2019-02-18T19:46:26.714Z,100660.37
2019-02-18T19:49:13.828Z,100663.30
2019-02-18T19:52:01.465Z,100660.44
2019-02-18T19:54:49.556Z,100670.55
2019-02-18T20:00:44.092Z,100666.22
2019-02-18T20:03:31.797Z,100670.83
2019-02-18T20:06:18.739Z,100668.37
2019-02-18T20:12:12.419Z,100662.80
2019-02-18T20:15:00.968Z,100670.20
2019-02-18T20:17:48.292Z,100669.55
2019-02-18T20:23:49.769Z,100674.44
2019-02-18T20:29:43.606Z,100671.95
2019-02-18T20:32:38.752Z,100672.67
2019-02-18T20:38:32.074Z,100670.31
2019-02-18T20:41:19.106Z,100669.63
2019-02-18T20:44:07.681Z,100671.48
2019-02-18T20:47:08.081Z,100672.61
2019-02-18T20:49:55.176Z,100665.87
2019-02-18T20:52:45.508Z,100651.16
2019-02-18T20:55:34.145Z,100647.41
2019-02-18T20:58:22.366Z,100649.59
2019-02-18T21:01:09.502Z,100649.80
2019-02-18T21:03:56.746Z,100647.84
2019-02-18T21:06:44.458Z,100655.80
2019-02-18T21:09:31.675Z,100652.33
2019-02-18T21:12:19.955Z,100653.66
2019-02-18T21:15:05.805Z,100648.42
2019-02-18T21:17:53.341Z,100646.66
2019-02-18T21:20:47.603Z,100643.27
2019-02-18T21:23:34.530Z,100644.24
2019-02-18T21:26:22.039Z,100642.98
2019-02-18T21:29:09.023Z,100643.86
2019-02-18T21:38:10.018Z,100632.30
2019-02-18T21:40:58.523Z,100618.42
2019-02-18T21:43:45.786Z,100624.10
2019-02-18T21:46:36.574Z,100623.76
2019-02-18T21:49:24.867Z,100616.02
2019-02-18T21:52:12.149Z,100620.45
2019-02-18T21:55:13.881Z,100623.56
2019-02-18T21:58:01.203Z,100605.33
2019-02-18T22:00:49.446Z,100620.19
2019-02-18T22:03:36.461Z,100631.91
2019-02-18T22:06:24.192Z,100637.97
2019-02-18T22:09:11.468Z,100630.98
2019-02-18T22:15:05.347Z,100639.05
2019-02-18T22:18:00.691Z,100639.14
2019-02-18T22:27:17.298Z,100638.45
2019-02-18T22:30:06.453Z,100638.53
2019-02-18T22:33:03.408Z,100639.94
2019-02-18T22:35:51.094Z,100640.86
2019-02-18T22:38:39.605Z,100639.66
2019-02-18T22:41:27.373Z,100649.37
2019-02-18T22:44:31.678Z,100646.09
2019-02-18T22:47:33.319Z,100640.08
2019-02-18T22:50:21.562Z,100646.75
2019-02-18T22:53:08.889Z,100644.75
2019-02-18T23:02:09.818Z,100626.22
2019-02-18T23:39:17.989Z,100620.80
2019-02-18T23:42:04.952Z,100628.64
2019-02-18T23:54:10.655Z,100631.22
2019-02-18T23:56:57.953Z,100623.17
2019-02-18T23:59:45.322Z,100617.88
